PWSweather.com
Personal Weather Stations
Station Observations
EA5BZ
Nuevo Altabix, ElcheES

Nuevo AltabixElcheES

Lat: 38.276, Lon: -0.671

Elevation: 0

Station Type: Davis Vantage Pro 2

http://meteoelche.es

High Low Average
Temperature 63.3°F17.4°C 48.9°F9.4°C 56.3°F13.5°C
Dew Point 51.0°F10.6°C 43.7°F6.5°C 47.3°F8.5°C
Winds 10.3 mph 16.6 kmh 3.6 mph 5.8 kmh 7.0 mph WSW11.3 kmh WSW
Wind Gusts 15.7 mph25.3 kmh 4.3 mph6.9 kmh 9.0 mph14.5 kmh
Humidity 86% 56% 73%
Pressure 30.31 in1026.4 mb 30.12 in1020.0 mb -
Precipitation 0.00 in0.0 mm - -
Hour Temp Dew Point Humidity Winds Wind Gusts Pressure Precip Precip Rate Daily Precip Total
12:00 AM 54.3°F12.4°C 48.3°F9.1°C 80% 5.8 mph W9.3 kmh W 8.5 mph13.7 kmh 30.31 in1026.4 mb 0.00 in0.0 mm 0.00 in0.0 mm 0.00 in0.0 mm
12:05 AM 54.3°F12.4°C 48.2°F9.0°C 80% 6.0 mph W9.7 kmh W 7.6 mph12.2 kmh 30.31 in1026.4 mb 0.00 in0.0 mm 0.00 in0.0 mm 0.00 in0.0 mm
12:10 AM 54.1°F12.3°C 48.1°F8.9°C 80% 6.5 mph W10.5 kmh W 7.6 mph12.2 kmh 30.30 in1026.1 mb 0.00 in0.0 mm 0.00 in0.0 mm 0.00 in0.0 mm
12:15 AM 54.0°F12.2°C 47.9°F8.8°C 80% 6.5 mph W10.5 kmh W 8.1 mph13.0 kmh 30.30 in1026.1 mb 0.00 in0.0 mm 0.00 in0.0 mm 0.00 in0.0 mm
12:20 AM 53.8°F12.1°C 47.8°F8.8°C 80% 6.5 mph W10.5 kmh W 8.5 mph13.7 kmh 30.30 in1026.1 mb 0.00 in0.0 mm 0.00 in0.0 mm 0.00 in0.0 mm
12:25 AM 53.7°F12.1°C 47.7°F8.7°C 80% 6.6 mph W10.6 kmh W 9.2 mph14.8 kmh 30.30 in1026.1 mb 0.00 in0.0 mm 0.00 in0.0 mm 0.00 in0.0 mm
12:30 AM 53.5°F11.9°C 47.5°F8.6°C 80% 6.9 mph WSW11.1 kmh WSW 8.1 mph13.0 kmh 30.30 in1026.1 mb 0.00 in0.0 mm 0.00 in0.0 mm 0.00 in0.0 mm
12:35 AM 53.4°F11.9°C 47.4°F8.6°C 80% 6.8 mph WSW10.9 kmh WSW 8.1 mph13.0 kmh 30.30 in1026.1 mb 0.00 in0.0 mm 0.00 in0.0 mm 0.00 in0.0 mm
12:40 AM 53.4°F11.9°C 47.7°F8.7°C 81% 6.5 mph WSW10.5 kmh WSW 8.1 mph13.0 kmh 30.30 in1026.1 mb 0.00 in0.0 mm 0.00 in0.0 mm 0.00 in0.0 mm
12:45 AM 53.4°F11.9°C 47.7°F8.7°C 81% 6.6 mph WSW10.6 kmh WSW 8.7 mph14.0 kmh 30.30 in1026.1 mb 0.00 in0.0 mm 0.00 in0.0 mm 0.00 in0.0 mm
12:50 AM 53.2°F11.8°C 47.6°F8.7°C 81% 6.9 mph WSW11.1 kmh WSW 8.7 mph14.0 kmh 30.30 in1026.1 mb 0.00 in0.0 mm 0.00 in0.0 mm 0.00 in0.0 mm
12:55 AM 53.2°F11.8°C 47.5°F8.6°C 81% 6.8 mph WSW10.9 kmh WSW 7.6 mph12.2 kmh 30.29 in1025.7 mb 0.00 in0.0 mm 0.00 in0.0 mm 0.00 in0.0 mm
01:00 AM 53.1°F11.7°C 47.6°F8.7°C 82% 6.5 mph W10.5 kmh W 8.5 mph13.7 kmh 30.29 in1025.7 mb 0.00 in0.0 mm 0.00 in0.0 mm 0.00 in0.0 mm
01:05 AM 53.1°F11.7°C 47.7°F8.7°C 82% 6.5 mph W10.5 kmh W 8.5 mph13.7 kmh 30.29 in1025.7 mb 0.00 in0.0 mm 0.00 in0.0 mm 0.00 in0.0 mm
01:10 AM 53.1°F11.7°C 47.7°F8.7°C 82% 6.5 mph W10.5 kmh W 6.9 mph11.1 kmh 30.29 in1025.7 mb 0.00 in0.0 mm 0.00 in0.0 mm 0.00 in0.0 mm
01:15 AM 53.0°F11.7°C 47.6°F8.7°C 82% 6.4 mph W10.3 kmh W 8.1 mph13.0 kmh 30.29 in1025.7 mb 0.00 in0.0 mm 0.00 in0.0 mm 0.00 in0.0 mm
01:20 AM 52.9°F11.6°C 47.5°F8.6°C 82% 6.3 mph W10.1 kmh W 6.9 mph11.1 kmh 30.29 in1025.7 mb 0.00 in0.0 mm 0.00 in0.0 mm 0.00 in0.0 mm
01:25 AM 52.9°F11.6°C 47.7°F8.7°C 82% 6.1 mph W9.8 kmh W 8.1 mph13.0 kmh 30.28 in1025.4 mb 0.00 in0.0 mm 0.00 in0.0 mm 0.00 in0.0 mm
01:30 AM 52.9°F11.6°C 47.9°F8.8°C 83% 5.8 mph W9.3 kmh W 8.1 mph13.0 kmh 30.28 in1025.4 mb 0.00 in0.0 mm 0.00 in0.0 mm 0.00 in0.0 mm
01:35 AM 52.9°F11.6°C 47.9°F8.8°C 83% 6.0 mph W9.7 kmh W 8.7 mph14.0 kmh 30.28 in1025.4 mb 0.00 in0.0 mm 0.00 in0.0 mm 0.00 in0.0 mm
01:40 AM 52.8°F11.6°C 47.8°F8.8°C 83% 6.5 mph W10.5 kmh W 9.6 mph15.4 kmh 30.27 in1025.1 mb 0.00 in0.0 mm 0.00 in0.0 mm 0.00 in0.0 mm
01:45 AM 52.6°F11.4°C 47.6°F8.7°C 83% 6.6 mph W10.6 kmh W 7.4 mph11.9 kmh 30.27 in1025.1 mb 0.00 in0.0 mm 0.00 in0.0 mm 0.00 in0.0 mm
01:50 AM 52.5°F11.4°C 47.5°F8.6°C 83% 6.9 mph W11.1 kmh W 8.5 mph13.7 kmh 30.27 in1025.1 mb 0.00 in0.0 mm 0.00 in0.0 mm 0.00 in0.0 mm
01:55 AM 52.5°F11.4°C 47.5°F8.6°C 83% 6.9 mph W11.1 kmh W 9.6 mph15.4 kmh 30.27 in1025.1 mb 0.00 in0.0 mm 0.00 in0.0 mm 0.00 in0.0 mm
02:00 AM 52.5°F11.4°C 47.8°F8.8°C 84% 6.9 mph WSW11.1 kmh WSW 9.6 mph15.4 kmh 30.27 in1025.1 mb 0.00 in0.0 mm 0.00 in0.0 mm 0.00 in0.0 mm
02:05 AM 52.4°F11.3°C 47.7°F8.7°C 84% 7.1 mph W11.4 kmh W 8.7 mph14.0 kmh 30.27 in1025.1 mb 0.00 in0.0 mm 0.00 in0.0 mm 0.00 in0.0 mm
02:10 AM 52.5°F11.4°C 47.8°F8.8°C 84% 7.4 mph W11.9 kmh W 10.1 mph16.3 kmh 30.27 in1025.1 mb 0.00 in0.0 mm 0.00 in0.0 mm 0.00 in0.0 mm
02:15 AM 52.5°F11.4°C 47.9°F8.8°C 84% 7.4 mph W11.9 kmh W 8.7 mph14.0 kmh 30.27 in1025.1 mb 0.00 in0.0 mm 0.00 in0.0 mm 0.00 in0.0 mm
02:20 AM 52.5°F11.4°C 48.0°F8.9°C 84% 7.4 mph W11.9 kmh W 8.7 mph14.0 kmh 30.27 in1025.1 mb 0.00 in0.0 mm 0.00 in0.0 mm 0.00 in0.0 mm
02:25 AM 52.5°F11.4°C 48.1°F8.9°C 85% 7.1 mph W11.4 kmh W 10.3 mph16.6 kmh 30.27 in1025.1 mb 0.00 in0.0 mm 0.00 in0.0 mm 0.00 in0.0 mm
02:30 AM 52.6°F11.4°C 47.9°F8.8°C 84% 6.5 mph W10.5 kmh W 8.7 mph14.0 kmh 30.27 in1025.1 mb 0.00 in0.0 mm 0.00 in0.0 mm 0.00 in0.0 mm
02:35 AM 52.7°F11.5°C 48.0°F8.9°C 84% 6.5 mph W10.5 kmh W 9.2 mph14.8 kmh 30.27 in1025.1 mb 0.00 in0.0 mm 0.00 in0.0 mm 0.00 in0.0 mm
02:40 AM 52.6°F11.4°C 47.9°F8.8°C 84% 6.5 mph W10.5 kmh W 8.7 mph14.0 kmh 30.27 in1025.1 mb 0.00 in0.0 mm 0.00 in0.0 mm 0.00 in0.0 mm
02:45 AM 52.5°F11.4°C 47.8°F8.8°C 84% 6.7 mph W10.8 kmh W 9.6 mph15.4 kmh 30.27 in1025.1 mb 0.00 in0.0 mm 0.00 in0.0 mm 0.00 in0.0 mm
02:50 AM 52.5°F11.4°C 47.8°F8.8°C 84% 7.4 mph W11.9 kmh W 9.6 mph15.4 kmh 30.27 in1025.1 mb 0.00 in0.0 mm 0.00 in0.0 mm 0.00 in0.0 mm
02:55 AM 52.3°F11.3°C 47.7°F8.7°C 84% 7.4 mph W11.9 kmh W 10.7 mph17.2 kmh 30.26 in1024.7 mb 0.00 in0.0 mm 0.00 in0.0 mm 0.00 in0.0 mm
03:00 AM 52.3°F11.3°C 47.6°F8.7°C 84% 7.6 mph W12.2 kmh W 9.6 mph15.4 kmh 30.26 in1024.7 mb 0.00 in0.0 mm 0.00 in0.0 mm 0.00 in0.0 mm
03:05 AM 52.1°F11.2°C 47.5°F8.6°C 84% 7.5 mph W12.1 kmh W 9.2 mph14.8 kmh 30.26 in1024.7 mb 0.00 in0.0 mm 0.00 in0.0 mm 0.00 in0.0 mm
03:10 AM 52.0°F11.1°C 47.3°F8.5°C 84% 7.4 mph W11.9 kmh W 9.2 mph14.8 kmh 30.26 in1024.7 mb 0.00 in0.0 mm 0.00 in0.0 mm 0.00 in0.0 mm
03:15 AM 51.9°F11.1°C 47.2°F8.4°C 84% 7.3 mph W11.7 kmh W 9.2 mph14.8 kmh 30.26 in1024.7 mb 0.00 in0.0 mm 0.00 in0.0 mm 0.00 in0.0 mm
03:20 AM 51.8°F11.0°C 47.1°F8.4°C 84% 6.9 mph W11.1 kmh W 9.2 mph14.8 kmh 30.26 in1024.7 mb 0.00 in0.0 mm 0.00 in0.0 mm 0.00 in0.0 mm
03:25 AM 51.6°F10.9°C 46.9°F8.3°C 84% 7.1 mph W11.4 kmh W 9.2 mph14.8 kmh 30.26 in1024.7 mb 0.00 in0.0 mm 0.00 in0.0 mm 0.00 in0.0 mm
03:30 AM 51.6°F10.9°C 46.9°F8.3°C 84% 7.4 mph W11.9 kmh W 10.7 mph17.2 kmh 30.26 in1024.7 mb 0.00 in0.0 mm 0.00 in0.0 mm 0.00 in0.0 mm
03:35 AM 51.5°F10.8°C 46.8°F8.2°C 84% 7.6 mph WSW12.2 kmh WSW 11.2 mph18.0 kmh 30.26 in1024.7 mb 0.00 in0.0 mm 0.00 in0.0 mm 0.00 in0.0 mm
03:40 AM 51.4°F10.8°C 46.7°F8.2°C 84% 8.1 mph WSW13.0 kmh WSW 10.3 mph16.6 kmh 30.26 in1024.7 mb 0.00 in0.0 mm 0.00 in0.0 mm 0.00 in0.0 mm
03:45 AM 51.3°F10.7°C 46.6°F8.1°C 84% 7.9 mph WSW12.7 kmh WSW 10.3 mph16.6 kmh 30.26 in1024.7 mb 0.00 in0.0 mm 0.00 in0.0 mm 0.00 in0.0 mm
03:50 AM 51.2°F10.7°C 46.6°F8.1°C 84% 7.6 mph WSW12.2 kmh WSW 11.2 mph18.0 kmh 30.26 in1024.7 mb 0.00 in0.0 mm 0.00 in0.0 mm 0.00 in0.0 mm
03:55 AM 51.1°F10.6°C 46.4°F8.0°C 84% 7.7 mph WSW12.4 kmh WSW 9.6 mph15.4 kmh 30.25 in1024.4 mb 0.00 in0.0 mm 0.00 in0.0 mm 0.00 in0.0 mm
04:00 AM 51.1°F10.6°C 46.4°F8.0°C 84% 8.1 mph WSW13.0 kmh WSW 10.3 mph16.6 kmh 30.25 in1024.4 mb 0.00 in0.0 mm 0.00 in0.0 mm 0.00 in0.0 mm
04:05 AM 50.9°F10.5°C 46.3°F7.9°C 84% 8.2 mph WSW13.2 kmh WSW 10.7 mph17.2 kmh 30.25 in1024.4 mb 0.00 in0.0 mm 0.00 in0.0 mm 0.00 in0.0 mm
04:10 AM 50.8°F10.4°C 46.3°F7.9°C 84% 8.5 mph WSW13.7 kmh WSW 11.4 mph18.3 kmh 30.25 in1024.4 mb 0.00 in0.0 mm 0.00 in0.0 mm 0.00 in0.0 mm
04:15 AM 50.7°F10.4°C 46.4°F8.0°C 85% 8.7 mph WSW14.0 kmh WSW 11.9 mph19.2 kmh 30.25 in1024.4 mb 0.00 in0.0 mm 0.00 in0.0 mm 0.00 in0.0 mm
04:20 AM 50.7°F10.4°C 46.4°F8.0°C 85% 9.2 mph WSW14.8 kmh WSW 11.9 mph19.2 kmh 30.25 in1024.4 mb 0.00 in0.0 mm 0.00 in0.0 mm 0.00 in0.0 mm
04:25 AM 50.8°F10.4°C 46.5°F8.1°C 85% 9.2 mph WSW14.8 kmh WSW 11.4 mph18.3 kmh 30.24 in1024.0 mb 0.00 in0.0 mm 0.00 in0.0 mm 0.00 in0.0 mm
04:30 AM 50.8°F10.4°C 46.5°F8.1°C 85% 9.2 mph WSW14.8 kmh WSW 10.7 mph17.2 kmh 30.24 in1024.0 mb 0.00 in0.0 mm 0.00 in0.0 mm 0.00 in0.0 mm
04:35 AM 50.8°F10.4°C 46.4°F8.0°C 85% 8.9 mph WSW14.3 kmh WSW 11.2 mph18.0 kmh 30.24 in1024.0 mb 0.00 in0.0 mm 0.00 in0.0 mm 0.00 in0.0 mm
04:40 AM 50.7°F10.4°C 46.4°F8.0°C 85% 8.1 mph WSW13.0 kmh WSW 11.9 mph19.2 kmh 30.24 in1024.0 mb 0.00 in0.0 mm 0.00 in0.0 mm 0.00 in0.0 mm
04:45 AM 50.7°F10.4°C 46.4°F8.0°C 85% 8.2 mph WSW13.2 kmh WSW 10.7 mph17.2 kmh 30.24 in1024.0 mb 0.00 in0.0 mm 0.00 in0.0 mm 0.00 in0.0 mm
04:50 AM 50.7°F10.4°C 46.6°F8.1°C 86% 8.5 mph WSW13.7 kmh WSW 10.7 mph17.2 kmh 30.24 in1024.0 mb 0.00 in0.0 mm 0.00 in0.0 mm 0.00 in0.0 mm
04:55 AM 50.9°F10.5°C 46.8°F8.2°C 86% 8.6 mph WSW13.8 kmh WSW 11.2 mph18.0 kmh 30.23 in1023.7 mb 0.00 in0.0 mm 0.00 in0.0 mm 0.00 in0.0 mm
05:00 AM 50.9°F10.5°C 46.9°F8.3°C 86% 8.7 mph WSW14.0 kmh WSW 8.7 mph14.0 kmh 30.23 in1023.7 mb 0.00 in0.0 mm 0.00 in0.0 mm 0.00 in0.0 mm
05:05 AM 51.0°F10.6°C 46.9°F8.3°C 86% 8.2 mph WSW13.2 kmh WSW 8.7 mph14.0 kmh 30.23 in1023.7 mb 0.00 in0.0 mm 0.00 in0.0 mm 0.00 in0.0 mm
05:10 AM 51.0°F10.6°C 46.9°F8.3°C 86% 6.9 mph WSW11.1 kmh WSW 10.1 mph16.3 kmh 30.23 in1023.7 mb 0.00 in0.0 mm 0.00 in0.0 mm 0.00 in0.0 mm
05:15 AM 51.1°F10.6°C 46.9°F8.3°C 86% 6.9 mph WSW11.1 kmh WSW 10.1 mph16.3 kmh 30.23 in1023.7 mb 0.00 in0.0 mm 0.00 in0.0 mm 0.00 in0.0 mm
05:20 AM 51.0°F10.6°C 46.6°F8.1°C 85% 6.9 mph WSW11.1 kmh WSW 10.1 mph16.3 kmh 30.23 in1023.7 mb 0.00 in0.0 mm 0.00 in0.0 mm 0.00 in0.0 mm
05:25 AM 50.9°F10.5°C 46.5°F8.1°C 85% 7.3 mph WSW11.7 kmh WSW 10.7 mph17.2 kmh 30.23 in1023.7 mb 0.00 in0.0 mm 0.00 in0.0 mm 0.00 in0.0 mm
05:30 AM 50.7°F10.4°C 46.4°F8.0°C 85% 8.1 mph WSW13.0 kmh WSW 11.2 mph18.0 kmh 30.23 in1023.7 mb 0.00 in0.0 mm 0.00 in0.0 mm 0.00 in0.0 mm
05:35 AM 50.6°F10.3°C 46.2°F7.9°C 85% 7.9 mph WSW12.7 kmh WSW 10.1 mph16.3 kmh 30.23 in1023.7 mb 0.00 in0.0 mm 0.00 in0.0 mm 0.00 in0.0 mm
05:40 AM 50.5°F10.3°C 46.0°F7.8°C 85% 7.6 mph WSW12.2 kmh WSW 10.1 mph16.3 kmh 30.23 in1023.7 mb 0.00 in0.0 mm 0.00 in0.0 mm 0.00 in0.0 mm
05:45 AM 50.4°F10.2°C 45.7°F7.6°C 84% 7.7 mph WSW12.4 kmh WSW 10.7 mph17.2 kmh 30.23 in1023.7 mb 0.00 in0.0 mm 0.00 in0.0 mm 0.00 in0.0 mm
05:50 AM 50.4°F10.2°C 45.7°F7.6°C 84% 8.1 mph WSW13.0 kmh WSW 10.3 mph16.6 kmh 30.23 in1023.7 mb 0.00 in0.0 mm 0.00 in0.0 mm 0.00 in0.0 mm
05:55 AM 50.2°F10.1°C 45.6°F7.6°C 84% 8.1 mph WSW13.0 kmh WSW 10.1 mph16.3 kmh 30.23 in1023.7 mb 0.00 in0.0 mm 0.00 in0.0 mm 0.00 in0.0 mm
06:00 AM 50.2°F10.1°C 45.5°F7.5°C 84% 8.1 mph WSW13.0 kmh WSW 11.4 mph18.3 kmh 30.23 in1023.7 mb 0.00 in0.0 mm 0.00 in0.0 mm 0.00 in0.0 mm
06:05 AM 50.2°F10.1°C 45.6°F7.6°C 84% 8.1 mph WSW13.0 kmh WSW 10.3 mph16.6 kmh 30.23 in1023.7 mb 0.00 in0.0 mm 0.00 in0.0 mm 0.00 in0.0 mm
06:10 AM 50.2°F10.1°C 45.5°F7.5°C 84% 8.1 mph WSW13.0 kmh WSW 9.2 mph14.8 kmh 30.23 in1023.7 mb 0.00 in0.0 mm 0.00 in0.0 mm 0.00 in0.0 mm
06:15 AM 50.2°F10.1°C 45.5°F7.5°C 84% 7.9 mph WSW12.7 kmh WSW 9.2 mph14.8 kmh 30.22 in1023.4 mb 0.00 in0.0 mm 0.00 in0.0 mm 0.00 in0.0 mm
06:20 AM 50.2°F10.1°C 45.7°F7.6°C 85% 7.4 mph WSW11.9 kmh WSW 9.6 mph15.4 kmh 30.22 in1023.4 mb 0.00 in0.0 mm 0.00 in0.0 mm 0.00 in0.0 mm
06:25 AM 50.3°F10.2°C 46.0°F7.8°C 85% 7.3 mph WSW11.7 kmh WSW 8.1 mph13.0 kmh 30.22 in1023.4 mb 0.00 in0.0 mm 0.00 in0.0 mm 0.00 in0.0 mm
06:30 AM 50.4°F10.2°C 46.0°F7.8°C 85% 6.9 mph WSW11.1 kmh WSW 8.1 mph13.0 kmh 30.22 in1023.4 mb 0.00 in0.0 mm 0.00 in0.0 mm 0.00 in0.0 mm
06:35 AM 50.4°F10.2°C 46.0°F7.8°C 85% 6.8 mph WSW10.9 kmh WSW 8.1 mph13.0 kmh 30.22 in1023.4 mb 0.00 in0.0 mm 0.00 in0.0 mm 0.00 in0.0 mm
06:40 AM 50.3°F10.2°C 45.8°F7.7°C 84% 6.5 mph WSW10.5 kmh WSW 9.2 mph14.8 kmh 30.22 in1023.4 mb 0.00 in0.0 mm 0.00 in0.0 mm 0.00 in0.0 mm
06:45 AM 50.2°F10.1°C 45.6°F7.6°C 84% 6.6 mph WSW10.6 kmh WSW 10.3 mph16.6 kmh 30.22 in1023.4 mb 0.00 in0.0 mm 0.00 in0.0 mm 0.00 in0.0 mm
06:50 AM 50.2°F10.1°C 45.6°F7.6°C 84% 6.9 mph WSW11.1 kmh WSW 9.6 mph15.4 kmh 30.22 in1023.4 mb 0.00 in0.0 mm 0.00 in0.0 mm 0.00 in0.0 mm
06:55 AM 50.3°F10.2°C 45.6°F7.6°C 84% 7.1 mph WSW11.4 kmh WSW 9.2 mph14.8 kmh 30.22 in1023.4 mb 0.00 in0.0 mm 0.00 in0.0 mm 0.00 in0.0 mm
07:00 AM 50.2°F10.1°C 45.5°F7.5°C 84% 7.4 mph WSW11.9 kmh WSW 8.5 mph13.7 kmh 30.22 in1023.4 mb 0.00 in0.0 mm 0.00 in0.0 mm 0.00 in0.0 mm
07:05 AM 50.2°F10.1°C 45.5°F7.5°C 84% 7.1 mph WSW11.4 kmh WSW 8.1 mph13.0 kmh 30.22 in1023.4 mb 0.00 in0.0 mm 0.00 in0.0 mm 0.00 in0.0 mm
07:10 AM 50.1°F10.1°C 45.4°F7.4°C 84% 6.3 mph WSW10.1 kmh WSW 7.4 mph11.9 kmh 30.23 in1023.7 mb 0.00 in0.0 mm 0.00 in0.0 mm 0.00 in0.0 mm
07:15 AM 49.9°F9.9°C 45.2°F7.3°C 84% 6.0 mph WSW9.7 kmh WSW 6.9 mph11.1 kmh 30.23 in1023.7 mb 0.00 in0.0 mm 0.00 in0.0 mm 0.00 in0.0 mm
07:20 AM 49.8°F9.9°C 45.2°F7.3°C 84% 5.4 mph WSW8.7 kmh WSW 7.6 mph12.2 kmh 30.23 in1023.7 mb 0.00 in0.0 mm 0.00 in0.0 mm 0.00 in0.0 mm
07:25 AM 49.8°F9.9°C 45.2°F7.3°C 84% 5.4 mph WSW8.7 kmh WSW 6.9 mph11.1 kmh 30.23 in1023.7 mb 0.00 in0.0 mm 0.00 in0.0 mm 0.00 in0.0 mm
07:30 AM 49.7°F9.8°C 45.0°F7.2°C 84% 5.4 mph WSW8.7 kmh WSW 7.4 mph11.9 kmh 30.22 in1023.4 mb 0.00 in0.0 mm 0.00 in0.0 mm 0.00 in0.0 mm
07:35 AM 49.6°F9.8°C 45.0°F7.2°C 84% 5.4 mph WSW8.7 kmh WSW 8.1 mph13.0 kmh 30.22 in1023.4 mb 0.00 in0.0 mm 0.00 in0.0 mm 0.00 in0.0 mm
07:40 AM 49.6°F9.8°C 44.9°F7.2°C 84% 5.4 mph WSW8.7 kmh WSW 6.9 mph11.1 kmh 30.22 in1023.4 mb 0.00 in0.0 mm 0.00 in0.0 mm 0.00 in0.0 mm
07:45 AM 49.5°F9.7°C 44.8°F7.1°C 84% 5.2 mph WSW8.4 kmh WSW 5.8 mph9.3 kmh 30.22 in1023.4 mb 0.00 in0.0 mm 0.00 in0.0 mm 0.00 in0.0 mm
07:50 AM 49.4°F9.7°C 44.8°F7.1°C 84% 4.7 mph W7.6 kmh W 5.8 mph9.3 kmh 30.22 in1023.4 mb 0.00 in0.0 mm 0.00 in0.0 mm 0.00 in0.0 mm
07:55 AM 49.3°F9.6°C 44.7°F7.1°C 84% 4.6 mph W7.4 kmh W 6.9 mph11.1 kmh 30.22 in1023.4 mb 0.00 in0.0 mm 0.00 in0.0 mm 0.00 in0.0 mm
08:00 AM 49.3°F9.6°C 44.6°F7.0°C 84% 4.3 mph WSW6.9 kmh WSW 6.5 mph10.5 kmh 30.22 in1023.4 mb 0.00 in0.0 mm 0.00 in0.0 mm 0.00 in0.0 mm
08:05 AM 49.1°F9.5°C 44.8°F7.1°C 85% 4.6 mph WSW7.4 kmh WSW 7.4 mph11.9 kmh 30.22 in1023.4 mb 0.00 in0.0 mm 0.00 in0.0 mm 0.00 in0.0 mm
08:10 AM 49.1°F9.5°C 44.8°F7.1°C 85% 5.4 mph WSW8.7 kmh WSW 8.5 mph13.7 kmh 30.22 in1023.4 mb 0.00 in0.0 mm 0.00 in0.0 mm 0.00 in0.0 mm
08:15 AM 49.1°F9.5°C 44.8°F7.1°C 85% 5.3 mph WSW8.5 kmh WSW 6.3 mph10.1 kmh 30.22 in1023.4 mb 0.00 in0.0 mm 0.00 in0.0 mm 0.00 in0.0 mm
08:20 AM 49.0°F9.4°C 44.7°F7.1°C 85% 5.1 mph WSW8.2 kmh WSW 11.4 mph18.3 kmh 30.22 in1023.4 mb 0.00 in0.0 mm 0.00 in0.0 mm 0.00 in0.0 mm
08:25 AM 48.9°F9.4°C 44.6°F7.0°C 85% 5.3 mph WSW8.5 kmh WSW 15.2 mph24.5 kmh 30.22 in1023.4 mb 0.00 in0.0 mm 0.00 in0.0 mm 0.00 in0.0 mm
08:30 AM 48.9°F9.4°C 44.5°F6.9°C 85% 5.8 mph WSW9.3 kmh WSW 15.2 mph24.5 kmh 30.22 in1023.4 mb 0.00 in0.0 mm 0.00 in0.0 mm 0.00 in0.0 mm
08:35 AM 48.9°F9.4°C 44.5°F6.9°C 85% 6.6 mph WSW10.6 kmh WSW 12.5 mph20.1 kmh 30.22 in1023.4 mb 0.00 in0.0 mm 0.00 in0.0 mm 0.00 in0.0 mm
08:40 AM 49.1°F9.5°C 44.8°F7.1°C 85% 8.7 mph W14.0 kmh W 8.7 mph14.0 kmh 30.23 in1023.7 mb 0.00 in0.0 mm 0.00 in0.0 mm 0.00 in0.0 mm
08:45 AM 49.4°F9.7°C 45.0°F7.2°C 85% 7.8 mph W12.6 kmh W 10.3 mph16.6 kmh 30.23 in1023.7 mb 0.00 in0.0 mm 0.00 in0.0 mm 0.00 in0.0 mm
08:50 AM 49.6°F9.8°C 44.9°F7.2°C 84% 5.4 mph WSW8.7 kmh WSW 7.4 mph11.9 kmh 30.23 in1023.7 mb 0.00 in0.0 mm 0.00 in0.0 mm 0.00 in0.0 mm
08:55 AM 49.8°F9.9°C 45.1°F7.3°C 84% 5.5 mph WSW8.9 kmh WSW 8.1 mph13.0 kmh 30.23 in1023.7 mb 0.00 in0.0 mm 0.00 in0.0 mm 0.00 in0.0 mm
09:00 AM 50.2°F10.1°C 45.2°F7.3°C 83% 5.8 mph WSW9.3 kmh WSW 10.3 mph16.6 kmh 30.23 in1023.7 mb 0.00 in0.0 mm 0.00 in0.0 mm 0.00 in0.0 mm
09:05 AM 50.5°F10.3°C 45.2°F7.3°C 82% 5.9 mph WSW9.5 kmh WSW 8.5 mph13.7 kmh 30.23 in1023.7 mb 0.00 in0.0 mm 0.00 in0.0 mm 0.00 in0.0 mm
09:10 AM 50.8°F10.4°C 45.1°F7.3°C 81% 6.3 mph WSW10.1 kmh WSW 7.6 mph12.2 kmh 30.23 in1023.7 mb 0.00 in0.0 mm 0.00 in0.0 mm 0.00 in0.0 mm
09:15 AM 51.2°F10.7°C 45.2°F7.3°C 80% 6.1 mph WSW9.8 kmh WSW 7.4 mph11.9 kmh 30.23 in1023.7 mb 0.00 in0.0 mm 0.00 in0.0 mm 0.00 in0.0 mm
09:20 AM 51.6°F10.9°C 45.5°F7.5°C 79% 5.8 mph WSW9.3 kmh WSW 8.5 mph13.7 kmh 30.23 in1023.7 mb 0.00 in0.0 mm 0.00 in0.0 mm 0.00 in0.0 mm
09:25 AM 52.1°F11.2°C 45.8°F7.7°C 79% 5.7 mph WSW9.2 kmh WSW 6.3 mph10.1 kmh 30.23 in1023.7 mb 0.00 in0.0 mm 0.00 in0.0 mm 0.00 in0.0 mm
09:30 AM 52.6°F11.4°C 45.8°F7.7°C 78% 5.4 mph WSW8.7 kmh WSW 7.6 mph12.2 kmh 30.23 in1023.7 mb 0.00 in0.0 mm 0.00 in0.0 mm 0.00 in0.0 mm
09:35 AM 53.1°F11.7°C 45.9°F7.7°C 76% 5.5 mph WSW8.9 kmh WSW 7.6 mph12.2 kmh 30.23 in1023.7 mb 0.00 in0.0 mm 0.00 in0.0 mm 0.00 in0.0 mm
09:40 AM 53.5°F11.9°C 45.9°F7.7°C 75% 5.8 mph WSW9.3 kmh WSW 8.1 mph13.0 kmh 30.23 in1023.7 mb 0.00 in0.0 mm 0.00 in0.0 mm 0.00 in0.0 mm
09:45 AM 54.0°F12.2°C 46.0°F7.8°C 74% 5.5 mph WSW8.9 kmh WSW 6.5 mph10.5 kmh 30.23 in1023.7 mb 0.00 in0.0 mm 0.00 in0.0 mm 0.00 in0.0 mm
09:50 AM 54.2°F12.3°C 46.1°F7.8°C 74% 4.7 mph WSW7.6 kmh WSW 8.5 mph13.7 kmh 30.23 in1023.7 mb 0.00 in0.0 mm 0.00 in0.0 mm 0.00 in0.0 mm
09:55 AM 54.6°F12.6°C 46.2°F7.9°C 73% 4.7 mph WSW7.6 kmh WSW 7.4 mph11.9 kmh 30.23 in1023.7 mb 0.00 in0.0 mm 0.00 in0.0 mm 0.00 in0.0 mm
10:00 AM 55.0°F12.8°C 46.2°F7.9°C 72% 4.7 mph WSW7.6 kmh WSW 7.4 mph11.9 kmh 30.23 in1023.7 mb 0.00 in0.0 mm 0.00 in0.0 mm 0.00 in0.0 mm
10:05 AM 55.3°F12.9°C 46.4°F8.0°C 72% 4.6 mph WSW7.4 kmh WSW 6.5 mph10.5 kmh 30.23 in1023.7 mb 0.00 in0.0 mm 0.00 in0.0 mm 0.00 in0.0 mm
10:10 AM 55.6°F13.1°C 46.3°F7.9°C 71% 4.3 mph WSW6.9 kmh WSW 6.5 mph10.5 kmh 30.23 in1023.7 mb 0.00 in0.0 mm 0.00 in0.0 mm 0.00 in0.0 mm
10:15 AM 55.7°F13.2°C 46.1°F7.8°C 70% 4.3 mph WSW6.9 kmh WSW 6.5 mph10.5 kmh 30.24 in1024.0 mb 0.00 in0.0 mm 0.00 in0.0 mm 0.00 in0.0 mm
10:20 AM 55.9°F13.3°C 46.3°F7.9°C 70% 4.3 mph WSW6.9 kmh WSW 7.6 mph12.2 kmh 30.24 in1024.0 mb 0.00 in0.0 mm 0.00 in0.0 mm 0.00 in0.0 mm
10:25 AM 56.2°F13.4°C 46.3°F7.9°C 69% 4.4 mph WSW7.1 kmh WSW 6.9 mph11.1 kmh 30.24 in1024.0 mb 0.00 in0.0 mm 0.00 in0.0 mm 0.00 in0.0 mm
10:30 AM 56.5°F13.6°C 46.4°F8.0°C 69% 4.7 mph WSW7.6 kmh WSW 6.3 mph10.1 kmh 30.24 in1024.0 mb 0.00 in0.0 mm 0.00 in0.0 mm 0.00 in0.0 mm
10:35 AM 56.6°F13.7°C 46.5°F8.1°C 69% 4.5 mph WSW7.2 kmh WSW 6.3 mph10.1 kmh 30.24 in1024.0 mb 0.00 in0.0 mm 0.00 in0.0 mm 0.00 in0.0 mm
10:40 AM 56.8°F13.8°C 46.7°F8.2°C 69% 4.0 mph SW6.4 kmh SW 7.6 mph12.2 kmh 30.24 in1024.0 mb 0.00 in0.0 mm 0.00 in0.0 mm 0.00 in0.0 mm
10:45 AM 57.0°F13.9°C 46.6°F8.1°C 68% 4.2 mph SW6.8 kmh SW 7.4 mph11.9 kmh 30.24 in1024.0 mb 0.00 in0.0 mm 0.00 in0.0 mm 0.00 in0.0 mm
10:50 AM 57.2°F14.0°C 46.7°F8.2°C 68% 4.7 mph SW7.6 kmh SW 7.6 mph12.2 kmh 30.24 in1024.0 mb 0.00 in0.0 mm 0.00 in0.0 mm 0.00 in0.0 mm
10:55 AM 57.5°F14.2°C 47.0°F8.3°C 68% 5.0 mph SW8.0 kmh SW 8.1 mph13.0 kmh 30.24 in1024.0 mb 0.00 in0.0 mm 0.00 in0.0 mm 0.00 in0.0 mm
11:00 AM 57.7°F14.3°C 46.8°F8.2°C 67% 5.8 mph WSW9.3 kmh WSW 8.7 mph14.0 kmh 30.24 in1024.0 mb 0.00 in0.0 mm 0.00 in0.0 mm 0.00 in0.0 mm
11:05 AM 57.9°F14.4°C 47.0°F8.3°C 67% 5.9 mph WSW9.5 kmh WSW 8.5 mph13.7 kmh 30.24 in1024.0 mb 0.00 in0.0 mm 0.00 in0.0 mm 0.00 in0.0 mm
11:10 AM 58.2°F14.6°C 47.3°F8.5°C 67% 6.3 mph WSW10.1 kmh WSW 8.7 mph14.0 kmh 30.24 in1024.0 mb 0.00 in0.0 mm 0.00 in0.0 mm 0.00 in0.0 mm
11:15 AM 58.5°F14.7°C 47.3°F8.5°C 66% 5.9 mph WSW9.5 kmh WSW 8.7 mph14.0 kmh 30.24 in1024.0 mb 0.00 in0.0 mm 0.00 in0.0 mm 0.00 in0.0 mm
11:20 AM 58.8°F14.9°C 47.4°F8.6°C 66% 5.1 mph WSW8.2 kmh WSW 8.5 mph13.7 kmh 30.24 in1024.0 mb 0.00 in0.0 mm 0.00 in0.0 mm 0.00 in0.0 mm
11:25 AM 59.1°F15.1°C 47.8°F8.8°C 66% 5.2 mph WSW8.4 kmh WSW 10.7 mph17.2 kmh 30.23 in1023.7 mb 0.00 in0.0 mm 0.00 in0.0 mm 0.00 in0.0 mm
11:30 AM 59.4°F15.2°C 47.8°F8.8°C 66% 5.4 mph SW8.7 kmh SW 9.2 mph14.8 kmh 30.23 in1023.7 mb 0.00 in0.0 mm 0.00 in0.0 mm 0.00 in0.0 mm
11:35 AM 59.6°F15.3°C 48.0°F8.9°C 66% 5.2 mph SW8.4 kmh SW 6.5 mph10.5 kmh 30.23 in1023.7 mb 0.00 in0.0 mm 0.00 in0.0 mm 0.00 in0.0 mm
11:40 AM 59.8°F15.4°C 48.1°F8.9°C 65% 4.7 mph SW7.6 kmh SW 8.7 mph14.0 kmh 30.23 in1023.7 mb 0.00 in0.0 mm 0.00 in0.0 mm 0.00 in0.0 mm
11:45 AM 60.2°F15.7°C 48.4°F9.1°C 65% 4.9 mph SW7.9 kmh SW 6.9 mph11.1 kmh 30.23 in1023.7 mb 0.00 in0.0 mm 0.00 in0.0 mm 0.00 in0.0 mm
11:50 AM 60.4°F15.8°C 48.4°F9.1°C 65% 5.4 mph SW8.7 kmh SW 9.2 mph14.8 kmh 30.23 in1023.7 mb 0.00 in0.0 mm 0.00 in0.0 mm 0.00 in0.0 mm
11:55 AM 60.3°F15.7°C 48.8°F9.3°C 66% 5.4 mph SW8.7 kmh SW 10.1 mph16.3 kmh 30.23 in1023.7 mb 0.00 in0.0 mm 0.00 in0.0 mm 0.00 in0.0 mm
12:00 PM 60.4°F15.8°C 48.9°F9.4°C 66% 5.4 mph SW8.7 kmh SW 9.6 mph15.4 kmh 30.22 in1023.4 mb 0.00 in0.0 mm 0.00 in0.0 mm 0.00 in0.0 mm
12:05 PM 60.4°F15.8°C 48.6°F9.2°C 65% 5.7 mph SW9.2 kmh SW 12.3 mph19.8 kmh 30.22 in1023.4 mb 0.00 in0.0 mm 0.00 in0.0 mm 0.00 in0.0 mm
12:10 PM 60.4°F15.8°C 49.0°F9.4°C 66% 6.5 mph SW10.5 kmh SW 13.6 mph21.9 kmh 30.22 in1023.4 mb 0.00 in0.0 mm 0.00 in0.0 mm 0.00 in0.0 mm
12:15 PM 60.4°F15.8°C 49.3°F9.6°C 67% 7.1 mph SW11.4 kmh SW 12.5 mph20.1 kmh 30.22 in1023.4 mb 0.00 in0.0 mm 0.00 in0.0 mm 0.00 in0.0 mm
12:20 PM 60.4°F15.8°C 49.9°F9.9°C 68% 8.7 mph SW14.0 kmh SW 13.4 mph21.6 kmh 30.22 in1023.4 mb 0.00 in0.0 mm 0.00 in0.0 mm 0.00 in0.0 mm
12:25 PM 60.4°F15.8°C 50.3°F10.2°C 69% 8.7 mph SW14.0 kmh SW 11.4 mph18.3 kmh 30.21 in1023.0 mb 0.00 in0.0 mm 0.00 in0.0 mm 0.00 in0.0 mm
12:30 PM 60.5°F15.8°C 50.7°F10.4°C 70% 8.7 mph SW14.0 kmh SW 11.2 mph18.0 kmh 30.21 in1023.0 mb 0.00 in0.0 mm 0.00 in0.0 mm 0.00 in0.0 mm
12:35 PM 60.7°F15.9°C 51.0°F10.6°C 70% 8.3 mph SW13.4 kmh SW 13.0 mph20.9 kmh 30.21 in1023.0 mb 0.00 in0.0 mm 0.00 in0.0 mm 0.00 in0.0 mm
12:40 PM 60.6°F15.9°C 50.8°F10.4°C 70% 7.4 mph SW11.9 kmh SW 14.5 mph23.3 kmh 30.20 in1022.7 mb 0.00 in0.0 mm 0.00 in0.0 mm 0.00 in0.0 mm
12:45 PM 60.7°F15.9°C 50.4°F10.2°C 69% 7.9 mph SW12.7 kmh SW 13.6 mph21.9 kmh 30.20 in1022.7 mb 0.00 in0.0 mm 0.00 in0.0 mm 0.00 in0.0 mm
12:50 PM 60.6°F15.9°C 49.9°F9.9°C 68% 9.2 mph SW14.8 kmh SW 14.5 mph23.3 kmh 30.20 in1022.7 mb 0.00 in0.0 mm 0.00 in0.0 mm 0.00 in0.0 mm
12:55 PM 60.2°F15.7°C 49.6°F9.8°C 68% 9.5 mph SW15.3 kmh SW 13.0 mph20.9 kmh 30.20 in1022.7 mb 0.00 in0.0 mm 0.00 in0.0 mm 0.00 in0.0 mm
01:00 PM 60.4°F15.8°C 50.0°F10.0°C 69% 10.3 mph SSW16.6 kmh SSW 12.3 mph19.8 kmh 30.20 in1022.7 mb 0.00 in0.0 mm 0.00 in0.0 mm 0.00 in0.0 mm
01:05 PM 60.8°F16.0°C 49.9°F9.9°C 67% 9.8 mph SSW15.8 kmh SSW 11.4 mph18.3 kmh 30.20 in1022.7 mb 0.00 in0.0 mm 0.00 in0.0 mm 0.00 in0.0 mm
01:10 PM 61.2°F16.2°C 49.5°F9.7°C 65% 8.5 mph SW13.7 kmh SW 13.0 mph20.9 kmh 30.19 in1022.4 mb 0.00 in0.0 mm 0.00 in0.0 mm 0.00 in0.0 mm
01:15 PM 61.4°F16.3°C 49.3°F9.6°C 64% 8.4 mph SW13.5 kmh SW 12.5 mph20.1 kmh 30.19 in1022.4 mb 0.00 in0.0 mm 0.00 in0.0 mm 0.00 in0.0 mm
01:20 PM 61.5°F16.4°C 49.1°F9.5°C 64% 8.1 mph SW13.0 kmh SW 11.2 mph18.0 kmh 30.19 in1022.4 mb 0.00 in0.0 mm 0.00 in0.0 mm 0.00 in0.0 mm
01:25 PM 61.7°F16.5°C 49.0°F9.4°C 63% 7.9 mph SW12.7 kmh SW 12.3 mph19.8 kmh 30.19 in1022.4 mb 0.00 in0.0 mm 0.00 in0.0 mm 0.00 in0.0 mm
01:30 PM 61.8°F16.6°C 49.0°F9.4°C 63% 7.4 mph SSW11.9 kmh SSW 12.3 mph19.8 kmh 30.19 in1022.4 mb 0.00 in0.0 mm 0.00 in0.0 mm 0.00 in0.0 mm
01:35 PM 62.0°F16.7°C 49.0°F9.4°C 62% 7.8 mph SSW12.6 kmh SSW 13.0 mph20.9 kmh 30.19 in1022.4 mb 0.00 in0.0 mm 0.00 in0.0 mm 0.00 in0.0 mm
01:40 PM 61.9°F16.6°C 49.1°F9.5°C 63% 8.7 mph SSW14.0 kmh SSW 13.6 mph21.9 kmh 30.18 in1022.0 mb 0.00 in0.0 mm 0.00 in0.0 mm 0.00 in0.0 mm
01:45 PM 62.0°F16.7°C 49.1°F9.5°C 63% 8.7 mph SSW14.0 kmh SSW 13.4 mph21.6 kmh 30.18 in1022.0 mb 0.00 in0.0 mm 0.00 in0.0 mm 0.00 in0.0 mm
01:50 PM 62.3°F16.8°C 49.0°F9.4°C 62% 8.7 mph SW14.0 kmh SW 13.4 mph21.6 kmh 30.18 in1022.0 mb 0.00 in0.0 mm 0.00 in0.0 mm 0.00 in0.0 mm
01:55 PM 62.5°F16.9°C 48.9°F9.4°C 61% 8.7 mph SSW14.0 kmh SSW 13.0 mph20.9 kmh 30.17 in1021.7 mb 0.00 in0.0 mm 0.00 in0.0 mm 0.00 in0.0 mm
02:00 PM 62.4°F16.9°C 48.8°F9.3°C 61% 8.7 mph SSW14.0 kmh SSW 11.2 mph18.0 kmh 30.17 in1021.7 mb 0.00 in0.0 mm 0.00 in0.0 mm 0.00 in0.0 mm
02:05 PM 62.6°F17.0°C 49.2°F9.6°C 62% 8.2 mph SSW13.2 kmh SSW 11.2 mph18.0 kmh 30.17 in1021.7 mb 0.00 in0.0 mm 0.00 in0.0 mm 0.00 in0.0 mm
02:10 PM 62.7°F17.1°C 49.0°F9.4°C 61% 6.9 mph SSW11.1 kmh SSW 13.4 mph21.6 kmh 30.16 in1021.3 mb 0.00 in0.0 mm 0.00 in0.0 mm 0.00 in0.0 mm
02:15 PM 62.8°F17.1°C 48.5°F9.2°C 59% 7.1 mph SSW11.4 kmh SSW 12.5 mph20.1 kmh 30.16 in1021.3 mb 0.00 in0.0 mm 0.00 in0.0 mm 0.00 in0.0 mm
02:20 PM 62.6°F17.0°C 48.4°F9.1°C 60% 7.6 mph SSW12.2 kmh SSW 13.0 mph20.9 kmh 30.16 in1021.3 mb 0.00 in0.0 mm 0.00 in0.0 mm 0.00 in0.0 mm
02:25 PM 62.5°F16.9°C 48.0°F8.9°C 59% 7.6 mph S12.2 kmh S 11.4 mph18.3 kmh 30.16 in1021.3 mb 0.00 in0.0 mm 0.00 in0.0 mm 0.00 in0.0 mm
02:30 PM 62.7°F17.1°C 48.6°F9.2°C 60% 7.6 mph S12.2 kmh S 11.9 mph19.2 kmh 30.16 in1021.3 mb 0.00 in0.0 mm 0.00 in0.0 mm 0.00 in0.0 mm
02:35 PM 62.8°F17.1°C 48.7°F9.3°C 60% 7.5 mph S12.1 kmh S 9.2 mph14.8 kmh 30.16 in1021.3 mb 0.00 in0.0 mm 0.00 in0.0 mm 0.00 in0.0 mm
02:40 PM 63.0°F17.2°C 48.6°F9.2°C 59% 7.4 mph SSW11.9 kmh SSW 15.2 mph24.5 kmh 30.15 in1021.0 mb 0.00 in0.0 mm 0.00 in0.0 mm 0.00 in0.0 mm
02:45 PM 62.9°F17.2°C 48.8°F9.3°C 60% 7.9 mph SSW12.7 kmh SSW 15.2 mph24.5 kmh 30.15 in1021.0 mb 0.00 in0.0 mm 0.00 in0.0 mm 0.00 in0.0 mm
02:50 PM 63.0°F17.2°C 49.2°F9.6°C 61% 9.2 mph SW14.8 kmh SW 12.5 mph20.1 kmh 30.15 in1021.0 mb 0.00 in0.0 mm 0.00 in0.0 mm 0.00 in0.0 mm
02:55 PM 63.3°F17.4°C 49.2°F9.6°C 60% 8.7 mph SW14.0 kmh SW 12.3 mph19.8 kmh 30.14 in1020.7 mb 0.00 in0.0 mm 0.00 in0.0 mm 0.00 in0.0 mm
03:00 PM 63.1°F17.3°C 49.2°F9.6°C 61% 7.4 mph SW11.9 kmh SW 15.7 mph25.3 kmh 30.14 in1020.7 mb 0.00 in0.0 mm 0.00 in0.0 mm 0.00 in0.0 mm
03:05 PM 62.9°F17.2°C 49.4°F9.7°C 61% 8.0 mph SSW12.9 kmh SSW 14.5 mph23.3 kmh 30.14 in1020.7 mb 0.00 in0.0 mm 0.00 in0.0 mm 0.00 in0.0 mm
03:10 PM 62.8°F17.1°C 49.8°F9.9°C 63% 9.6 mph SSW15.4 kmh SSW 10.3 mph16.6 kmh 30.14 in1020.7 mb 0.00 in0.0 mm 0.00 in0.0 mm 0.00 in0.0 mm
03:15 PM 62.9°F17.2°C 49.9°F9.9°C 63% 9.0 mph SSW14.5 kmh SSW 13.6 mph21.9 kmh 30.14 in1020.7 mb 0.00 in0.0 mm 0.00 in0.0 mm 0.00 in0.0 mm
03:20 PM 62.8°F17.1°C 50.0°F10.0°C 63% 7.4 mph S11.9 kmh S 12.5 mph20.1 kmh 30.14 in1020.7 mb 0.00 in0.0 mm 0.00 in0.0 mm 0.00 in0.0 mm
03:25 PM 62.9°F17.2°C 50.1°F10.1°C 63% 7.4 mph S11.9 kmh S 13.0 mph20.9 kmh 30.14 in1020.7 mb 0.00 in0.0 mm 0.00 in0.0 mm 0.00 in0.0 mm
03:30 PM 62.9°F17.2°C 49.7°F9.8°C 62% 7.6 mph SSW12.2 kmh SSW 14.1 mph22.7 kmh 30.14 in1020.7 mb 0.00 in0.0 mm 0.00 in0.0 mm 0.00 in0.0 mm
03:35 PM 62.8°F17.1°C 50.0°F10.0°C 63% 8.2 mph SSW13.2 kmh SSW 14.1 mph22.7 kmh 30.14 in1020.7 mb 0.00 in0.0 mm 0.00 in0.0 mm 0.00 in0.0 mm
03:40 PM 62.8°F17.1°C 50.0°F10.0°C 63% 9.6 mph SSW15.4 kmh SSW 13.4 mph21.6 kmh 30.13 in1020.3 mb 0.00 in0.0 mm 0.00 in0.0 mm 0.00 in0.0 mm
03:45 PM 62.9°F17.2°C 50.3°F10.2°C 63% 9.4 mph SSW15.1 kmh SSW 13.4 mph21.6 kmh 30.13 in1020.3 mb 0.00 in0.0 mm 0.00 in0.0 mm 0.00 in0.0 mm
03:50 PM 63.1°F17.3°C 50.3°F10.2°C 63% 8.7 mph SSW14.0 kmh SSW 13.0 mph20.9 kmh 30.13 in1020.3 mb 0.00 in0.0 mm 0.00 in0.0 mm 0.00 in0.0 mm
03:55 PM 63.0°F17.2°C 50.2°F10.1°C 63% 8.9 mph SSW14.3 kmh SSW 13.4 mph21.6 kmh 30.14 in1020.7 mb 0.00 in0.0 mm 0.00 in0.0 mm 0.00 in0.0 mm
04:00 PM 62.9°F17.2°C 50.3°F10.2°C 63% 9.2 mph SSW14.8 kmh SSW 11.9 mph19.2 kmh 30.14 in1020.7 mb 0.00 in0.0 mm 0.00 in0.0 mm 0.00 in0.0 mm
04:05 PM 62.9°F17.2°C 50.3°F10.2°C 64% 9.0 mph SSW14.5 kmh SSW 13.6 mph21.9 kmh 30.14 in1020.7 mb 0.00 in0.0 mm 0.00 in0.0 mm 0.00 in0.0 mm
04:10 PM 62.8°F17.1°C 50.3°F10.2°C 64% 8.5 mph SSW13.7 kmh SSW 12.5 mph20.1 kmh 30.14 in1020.7 mb 0.00 in0.0 mm 0.00 in0.0 mm 0.00 in0.0 mm
04:15 PM 62.9°F17.2°C 50.6°F10.3°C 64% 8.6 mph SSW13.8 kmh SSW 10.3 mph16.6 kmh 30.14 in1020.7 mb 0.00 in0.0 mm 0.00 in0.0 mm 0.00 in0.0 mm
04:20 PM 63.1°F17.3°C 50.6°F10.3°C 64% 8.7 mph SW14.0 kmh SW 12.3 mph19.8 kmh 30.14 in1020.7 mb 0.00 in0.0 mm 0.00 in0.0 mm 0.00 in0.0 mm
04:25 PM 63.1°F17.3°C 50.3°F10.2°C 63% 8.7 mph SW14.0 kmh SW 13.0 mph20.9 kmh 30.14 in1020.7 mb 0.00 in0.0 mm 0.00 in0.0 mm 0.00 in0.0 mm
04:30 PM 63.1°F17.3°C 50.3°F10.2°C 63% 8.5 mph SW13.7 kmh SW 12.5 mph20.1 kmh 30.14 in1020.7 mb 0.00 in0.0 mm 0.00 in0.0 mm 0.00 in0.0 mm
04:35 PM 63.2°F17.3°C 50.4°F10.2°C 63% 8.5 mph SW13.7 kmh SW 13.4 mph21.6 kmh 30.14 in1020.7 mb 0.00 in0.0 mm 0.00 in0.0 mm 0.00 in0.0 mm
04:40 PM 63.3°F17.4°C 50.1°F10.1°C 62% 8.5 mph SW13.7 kmh SW 10.7 mph17.2 kmh 30.13 in1020.3 mb 0.00 in0.0 mm 0.00 in0.0 mm 0.00 in0.0 mm
04:45 PM 63.3°F17.4°C 50.1°F10.1°C 62% 8.2 mph SW13.2 kmh SW 10.7 mph17.2 kmh 30.13 in1020.3 mb 0.00 in0.0 mm 0.00 in0.0 mm 0.00 in0.0 mm
04:50 PM 63.2°F17.3°C 50.1°F10.1°C 62% 7.6 mph SW12.2 kmh SW 11.2 mph18.0 kmh 30.13 in1020.3 mb 0.00 in0.0 mm 0.00 in0.0 mm 0.00 in0.0 mm
04:55 PM 63.1°F17.3°C 50.3°F10.2°C 63% 7.3 mph SW11.7 kmh SW 9.2 mph14.8 kmh 30.14 in1020.7 mb 0.00 in0.0 mm 0.00 in0.0 mm 0.00 in0.0 mm
05:00 PM 63.0°F17.2°C 50.2°F10.1°C 63% 6.5 mph SW10.5 kmh SW 8.5 mph13.7 kmh 30.14 in1020.7 mb 0.00 in0.0 mm 0.00 in0.0 mm 0.00 in0.0 mm
05:05 PM 62.9°F17.2°C 50.1°F10.1°C 63% 6.4 mph SW10.3 kmh SW 9.2 mph14.8 kmh 30.14 in1020.7 mb 0.00 in0.0 mm 0.00 in0.0 mm 0.00 in0.0 mm
05:10 PM 62.8°F17.1°C 50.0°F10.0°C 63% 6.3 mph SW10.1 kmh SW 8.7 mph14.0 kmh 30.14 in1020.7 mb 0.00 in0.0 mm 0.00 in0.0 mm 0.00 in0.0 mm
05:15 PM 62.7°F17.1°C 49.9°F9.9°C 63% 6.3 mph SW10.1 kmh SW 8.1 mph13.0 kmh 30.14 in1020.7 mb 0.00 in0.0 mm 0.00 in0.0 mm 0.00 in0.0 mm
05:20 PM 62.5°F16.9°C 49.9°F9.9°C 63% 6.5 mph SW10.5 kmh SW 7.6 mph12.2 kmh 30.14 in1020.7 mb 0.00 in0.0 mm 0.00 in0.0 mm 0.00 in0.0 mm
05:25 PM 62.4°F16.9°C 50.0°F10.0°C 64% 6.2 mph SW10.0 kmh SW 8.5 mph13.7 kmh 30.14 in1020.7 mb 0.00 in0.0 mm 0.00 in0.0 mm 0.00 in0.0 mm
05:30 PM 62.2°F16.8°C 49.9°F9.9°C 64% 5.4 mph SW8.7 kmh SW 8.1 mph13.0 kmh 30.14 in1020.7 mb 0.00 in0.0 mm 0.00 in0.0 mm 0.00 in0.0 mm
05:35 PM 62.1°F16.7°C 49.7°F9.8°C 64% 5.5 mph SW8.9 kmh SW 8.1 mph13.0 kmh 30.14 in1020.7 mb 0.00 in0.0 mm 0.00 in0.0 mm 0.00 in0.0 mm
05:40 PM 61.8°F16.6°C 49.5°F9.7°C 64% 5.8 mph SW9.3 kmh SW 8.7 mph14.0 kmh 30.14 in1020.7 mb 0.00 in0.0 mm 0.00 in0.0 mm 0.00 in0.0 mm
05:45 PM 61.5°F16.4°C 49.2°F9.6°C 64% 5.7 mph SW9.2 kmh SW 8.5 mph13.7 kmh 30.14 in1020.7 mb 0.00 in0.0 mm 0.00 in0.0 mm 0.00 in0.0 mm
05:50 PM 61.4°F16.3°C 49.1°F9.5°C 64% 5.4 mph SW8.7 kmh SW 8.1 mph13.0 kmh 30.14 in1020.7 mb 0.00 in0.0 mm 0.00 in0.0 mm 0.00 in0.0 mm
05:55 PM 61.3°F16.3°C 49.0°F9.4°C 64% 5.4 mph SW8.7 kmh SW 6.3 mph10.1 kmh 30.14 in1020.7 mb 0.00 in0.0 mm 0.00 in0.0 mm 0.00 in0.0 mm
06:00 PM 61.2°F16.2°C 48.9°F9.4°C 64% 5.4 mph SW8.7 kmh SW 5.4 mph8.7 kmh 30.14 in1020.7 mb 0.00 in0.0 mm 0.00 in0.0 mm 0.00 in0.0 mm
06:05 PM 61.1°F16.2°C 48.9°F9.4°C 64% 5.0 mph SW8.0 kmh SW 5.4 mph8.7 kmh 30.14 in1020.7 mb 0.00 in0.0 mm 0.00 in0.0 mm 0.00 in0.0 mm
06:10 PM 60.9°F16.1°C 49.1°F9.5°C 65% 4.0 mph SSW6.4 kmh SSW 5.4 mph8.7 kmh 30.14 in1020.7 mb 0.00 in0.0 mm 0.00 in0.0 mm 0.00 in0.0 mm
06:15 PM 60.8°F16.0°C 48.9°F9.4°C 65% 4.1 mph SSW6.6 kmh SSW 5.4 mph8.7 kmh 30.14 in1020.7 mb 0.00 in0.0 mm 0.00 in0.0 mm 0.00 in0.0 mm
06:20 PM 60.6°F15.9°C 48.8°F9.3°C 65% 4.3 mph SW6.9 kmh SW 6.5 mph10.5 kmh 30.14 in1020.7 mb 0.00 in0.0 mm 0.00 in0.0 mm 0.00 in0.0 mm
06:25 PM 60.6°F15.9°C 48.8°F9.3°C 65% 4.3 mph SW6.9 kmh SW 5.8 mph9.3 kmh 30.14 in1020.7 mb 0.00 in0.0 mm 0.00 in0.0 mm 0.00 in0.0 mm
06:30 PM 60.4°F15.8°C 48.8°F9.3°C 65% 4.3 mph SW6.9 kmh SW 4.7 mph7.6 kmh 30.14 in1020.7 mb 0.00 in0.0 mm 0.00 in0.0 mm 0.00 in0.0 mm
06:35 PM 60.2°F15.7°C 48.8°F9.3°C 66% 4.1 mph SW6.6 kmh SW 4.7 mph7.6 kmh 30.14 in1020.7 mb 0.00 in0.0 mm 0.00 in0.0 mm 0.00 in0.0 mm
06:40 PM 60.1°F15.6°C 48.7°F9.3°C 66% 3.6 mph SW5.8 kmh SW 6.3 mph10.1 kmh 30.14 in1020.7 mb 0.00 in0.0 mm 0.00 in0.0 mm 0.00 in0.0 mm
06:45 PM 59.8°F15.4°C 48.4°F9.1°C 66% 3.7 mph SW6.0 kmh SW 6.5 mph10.5 kmh 30.14 in1020.7 mb 0.00 in0.0 mm 0.00 in0.0 mm 0.00 in0.0 mm
06:50 PM 59.6°F15.3°C 48.6°F9.2°C 67% 4.0 mph SW6.4 kmh SW 5.8 mph9.3 kmh 30.14 in1020.7 mb 0.00 in0.0 mm 0.00 in0.0 mm 0.00 in0.0 mm
06:55 PM 59.5°F15.3°C 48.5°F9.2°C 67% 4.2 mph SW6.8 kmh SW 6.5 mph10.5 kmh 30.13 in1020.3 mb 0.00 in0.0 mm 0.00 in0.0 mm 0.00 in0.0 mm
07:00 PM 59.4°F15.2°C 48.4°F9.1°C 67% 4.7 mph SW7.6 kmh SW 7.4 mph11.9 kmh 30.13 in1020.3 mb 0.00 in0.0 mm 0.00 in0.0 mm 0.00 in0.0 mm
07:05 PM 59.4°F15.2°C 48.4°F9.1°C 67% 5.0 mph SW8.0 kmh SW 8.7 mph14.0 kmh 30.13 in1020.3 mb 0.00 in0.0 mm 0.00 in0.0 mm 0.00 in0.0 mm
07:10 PM 59.2°F15.1°C 47.9°F8.8°C 66% 5.8 mph SW9.3 kmh SW 8.7 mph14.0 kmh 30.14 in1020.7 mb 0.00 in0.0 mm 0.00 in0.0 mm 0.00 in0.0 mm
07:15 PM 59.2°F15.1°C 47.8°F8.8°C 66% 6.0 mph SW9.7 kmh SW 7.6 mph12.2 kmh 30.14 in1020.7 mb 0.00 in0.0 mm 0.00 in0.0 mm 0.00 in0.0 mm
07:20 PM 59.2°F15.1°C 47.8°F8.8°C 66% 6.5 mph SW10.5 kmh SW 8.7 mph14.0 kmh 30.14 in1020.7 mb 0.00 in0.0 mm 0.00 in0.0 mm 0.00 in0.0 mm
07:25 PM 58.9°F14.9°C 47.6°F8.7°C 66% 6.4 mph SW10.3 kmh SW 7.4 mph11.9 kmh 30.14 in1020.7 mb 0.00 in0.0 mm 0.00 in0.0 mm 0.00 in0.0 mm
07:30 PM 58.8°F14.9°C 47.7°F8.7°C 66% 6.3 mph WSW10.1 kmh WSW 8.1 mph13.0 kmh 30.14 in1020.7 mb 0.00 in0.0 mm 0.00 in0.0 mm 0.00 in0.0 mm
07:35 PM 58.7°F14.8°C 47.7°F8.7°C 67% 6.3 mph WSW10.1 kmh WSW 8.7 mph14.0 kmh 30.14 in1020.7 mb 0.00 in0.0 mm 0.00 in0.0 mm 0.00 in0.0 mm
07:40 PM 58.6°F14.8°C 47.6°F8.7°C 67% 6.3 mph WSW10.1 kmh WSW 8.5 mph13.7 kmh 30.14 in1020.7 mb 0.00 in0.0 mm 0.00 in0.0 mm 0.00 in0.0 mm
07:45 PM 58.4°F14.7°C 47.5°F8.6°C 67% 6.5 mph WSW10.5 kmh WSW 9.2 mph14.8 kmh 30.14 in1020.7 mb 0.00 in0.0 mm 0.00 in0.0 mm 0.00 in0.0 mm
07:50 PM 58.2°F14.6°C 47.4°F8.6°C 67% 6.9 mph WSW11.1 kmh WSW 8.5 mph13.7 kmh 30.14 in1020.7 mb 0.00 in0.0 mm 0.00 in0.0 mm 0.00 in0.0 mm
07:55 PM 58.0°F14.4°C 47.5°F8.6°C 68% 6.8 mph WSW10.9 kmh WSW 8.7 mph14.0 kmh 30.14 in1020.7 mb 0.00 in0.0 mm 0.00 in0.0 mm 0.00 in0.0 mm
08:00 PM 57.9°F14.4°C 47.4°F8.6°C 68% 6.5 mph WSW10.5 kmh WSW 8.5 mph13.7 kmh 30.14 in1020.7 mb 0.00 in0.0 mm 0.00 in0.0 mm 0.00 in0.0 mm
08:05 PM 57.7°F14.3°C 47.2°F8.4°C 68% 6.5 mph WSW10.5 kmh WSW 8.1 mph13.0 kmh 30.14 in1020.7 mb 0.00 in0.0 mm 0.00 in0.0 mm 0.00 in0.0 mm
08:10 PM 57.4°F14.1°C 47.1°F8.4°C 69% 6.5 mph WSW10.5 kmh WSW 7.4 mph11.9 kmh 30.14 in1020.7 mb 0.00 in0.0 mm 0.00 in0.0 mm 0.00 in0.0 mm
08:15 PM 57.0°F13.9°C 47.0°F8.3°C 69% 6.3 mph WSW10.1 kmh WSW 7.4 mph11.9 kmh 30.14 in1020.7 mb 0.00 in0.0 mm 0.00 in0.0 mm 0.00 in0.0 mm
08:20 PM 56.8°F13.8°C 46.7°F8.2°C 69% 5.8 mph WSW9.3 kmh WSW 8.5 mph13.7 kmh 30.14 in1020.7 mb 0.00 in0.0 mm 0.00 in0.0 mm 0.00 in0.0 mm
08:25 PM 56.6°F13.7°C 46.3°F7.9°C 68% 5.9 mph WSW9.5 kmh WSW 8.7 mph14.0 kmh 30.14 in1020.7 mb 0.00 in0.0 mm 0.00 in0.0 mm 0.00 in0.0 mm
08:30 PM 56.5°F13.6°C 46.0°F7.8°C 68% 6.3 mph WSW10.1 kmh WSW 8.5 mph13.7 kmh 30.14 in1020.7 mb 0.00 in0.0 mm 0.00 in0.0 mm 0.00 in0.0 mm
08:35 PM 56.5°F13.6°C 46.0°F7.8°C 68% 6.3 mph WSW10.1 kmh WSW 8.5 mph13.7 kmh 30.14 in1020.7 mb 0.00 in0.0 mm 0.00 in0.0 mm 0.00 in0.0 mm
08:40 PM 56.4°F13.6°C 45.9°F7.7°C 68% 6.5 mph WSW10.5 kmh WSW 8.1 mph13.0 kmh 30.14 in1020.7 mb 0.00 in0.0 mm 0.00 in0.0 mm 0.00 in0.0 mm
08:45 PM 56.3°F13.5°C 45.9°F7.7°C 68% 6.4 mph WSW10.3 kmh WSW 8.1 mph13.0 kmh 30.14 in1020.7 mb 0.00 in0.0 mm 0.00 in0.0 mm 0.00 in0.0 mm
08:50 PM 56.3°F13.5°C 45.9°F7.7°C 68% 6.3 mph WSW10.1 kmh WSW 10.1 mph16.3 kmh 30.14 in1020.7 mb 0.00 in0.0 mm 0.00 in0.0 mm 0.00 in0.0 mm
08:55 PM 56.5°F13.6°C 45.9°F7.7°C 67% 6.6 mph WSW10.6 kmh WSW 10.3 mph16.6 kmh 30.14 in1020.7 mb 0.00 in0.0 mm 0.00 in0.0 mm 0.00 in0.0 mm
09:00 PM 56.7°F13.7°C 45.8°F7.7°C 67% 7.4 mph WSW11.9 kmh WSW 9.6 mph15.4 kmh 30.14 in1020.7 mb 0.00 in0.0 mm 0.00 in0.0 mm 0.00 in0.0 mm
09:05 PM 56.7°F13.7°C 45.4°F7.4°C 66% 7.4 mph WSW11.9 kmh WSW 10.1 mph16.3 kmh 30.14 in1020.7 mb 0.00 in0.0 mm 0.00 in0.0 mm 0.00 in0.0 mm
09:10 PM 56.7°F13.7°C 45.4°F7.4°C 66% 7.6 mph WSW12.2 kmh WSW 10.7 mph17.2 kmh 30.13 in1020.3 mb 0.00 in0.0 mm 0.00 in0.0 mm 0.00 in0.0 mm
09:15 PM 56.7°F13.7°C 45.4°F7.4°C 66% 7.6 mph WSW12.2 kmh WSW 8.1 mph13.0 kmh 30.13 in1020.3 mb 0.00 in0.0 mm 0.00 in0.0 mm 0.00 in0.0 mm
09:20 PM 56.7°F13.7°C 45.4°F7.4°C 66% 7.6 mph WSW12.2 kmh WSW 7.6 mph12.2 kmh 30.13 in1020.3 mb 0.00 in0.0 mm 0.00 in0.0 mm 0.00 in0.0 mm
09:25 PM 56.7°F13.7°C 45.4°F7.4°C 66% 6.9 mph WSW11.1 kmh WSW 7.6 mph12.2 kmh 30.14 in1020.7 mb 0.00 in0.0 mm 0.00 in0.0 mm 0.00 in0.0 mm
09:30 PM 56.5°F13.6°C 45.3°F7.4°C 66% 5.1 mph WSW8.2 kmh WSW 6.9 mph11.1 kmh 30.14 in1020.7 mb 0.00 in0.0 mm 0.00 in0.0 mm 0.00 in0.0 mm
09:35 PM 56.5°F13.6°C 45.3°F7.4°C 66% 4.9 mph SW7.9 kmh SW 5.4 mph8.7 kmh 30.14 in1020.7 mb 0.00 in0.0 mm 0.00 in0.0 mm 0.00 in0.0 mm
09:40 PM 56.7°F13.7°C 45.4°F7.4°C 66% 4.3 mph SW6.9 kmh SW 6.5 mph10.5 kmh 30.13 in1020.3 mb 0.00 in0.0 mm 0.00 in0.0 mm 0.00 in0.0 mm
09:45 PM 56.7°F13.7°C 45.4°F7.4°C 66% 4.5 mph SW7.2 kmh SW 6.3 mph10.1 kmh 30.13 in1020.3 mb 0.00 in0.0 mm 0.00 in0.0 mm 0.00 in0.0 mm
09:50 PM 56.7°F13.7°C 45.3°F7.4°C 66% 5.1 mph SW8.2 kmh SW 5.4 mph8.7 kmh 30.13 in1020.3 mb 0.00 in0.0 mm 0.00 in0.0 mm 0.00 in0.0 mm
09:55 PM 56.7°F13.7°C 45.4°F7.4°C 66% 4.9 mph SW7.9 kmh SW 5.4 mph8.7 kmh 30.13 in1020.3 mb 0.00 in0.0 mm 0.00 in0.0 mm 0.00 in0.0 mm
10:00 PM 56.7°F13.7°C 45.4°F7.4°C 66% 4.3 mph WSW6.9 kmh WSW 4.3 mph6.9 kmh 30.13 in1020.3 mb 0.00 in0.0 mm 0.00 in0.0 mm 0.00 in0.0 mm
10:05 PM 56.7°F13.7°C 45.4°F7.4°C 66% 4.2 mph WSW6.8 kmh WSW 5.4 mph8.7 kmh 30.13 in1020.3 mb 0.00 in0.0 mm 0.00 in0.0 mm 0.00 in0.0 mm
10:10 PM 56.7°F13.7°C 45.8°F7.7°C 67% 4.0 mph SW6.4 kmh SW 5.4 mph8.7 kmh 30.13 in1020.3 mb 0.00 in0.0 mm 0.00 in0.0 mm 0.00 in0.0 mm
10:15 PM 56.6°F13.7°C 46.1°F7.8°C 68% 4.2 mph SW6.8 kmh SW 6.5 mph10.5 kmh 30.13 in1020.3 mb 0.00 in0.0 mm 0.00 in0.0 mm 0.00 in0.0 mm
10:20 PM 56.4°F13.6°C 46.0°F7.8°C 68% 4.7 mph SW7.6 kmh SW 5.8 mph9.3 kmh 30.13 in1020.3 mb 0.00 in0.0 mm 0.00 in0.0 mm 0.00 in0.0 mm
10:25 PM 56.1°F13.4°C 46.1°F7.8°C 69% 4.8 mph SW7.7 kmh SW 6.3 mph10.1 kmh 30.13 in1020.3 mb 0.00 in0.0 mm 0.00 in0.0 mm 0.00 in0.0 mm
10:30 PM 55.9°F13.3°C 45.9°F7.7°C 69% 5.1 mph SW8.2 kmh SW 8.1 mph13.0 kmh 30.13 in1020.3 mb 0.00 in0.0 mm 0.00 in0.0 mm 0.00 in0.0 mm
10:35 PM 55.9°F13.3°C 45.9°F7.7°C 69% 5.5 mph SW8.9 kmh SW 8.5 mph13.7 kmh 30.13 in1020.3 mb 0.00 in0.0 mm 0.00 in0.0 mm 0.00 in0.0 mm
10:40 PM 55.9°F13.3°C 45.9°F7.7°C 69% 6.5 mph SW10.5 kmh SW 8.5 mph13.7 kmh 30.13 in1020.3 mb 0.00 in0.0 mm 0.00 in0.0 mm 0.00 in0.0 mm
10:45 PM 56.1°F13.4°C 45.8°F7.7°C 68% 6.7 mph SW10.8 kmh SW 8.7 mph14.0 kmh 30.13 in1020.3 mb 0.00 in0.0 mm 0.00 in0.0 mm 0.00 in0.0 mm
10:50 PM 56.4°F13.6°C 45.4°F7.4°C 66% 7.4 mph SW11.9 kmh SW 10.1 mph16.3 kmh 30.13 in1020.3 mb 0.00 in0.0 mm 0.00 in0.0 mm 0.00 in0.0 mm
10:55 PM 56.9°F13.8°C 44.7°F7.1°C 64% 7.4 mph SW11.9 kmh SW 10.1 mph16.3 kmh 30.13 in1020.3 mb 0.00 in0.0 mm 0.00 in0.0 mm 0.00 in0.0 mm
11:00 PM 57.6°F14.2°C 44.4°F6.9°C 61% 7.6 mph WSW12.2 kmh WSW 10.7 mph17.2 kmh 30.13 in1020.3 mb 0.00 in0.0 mm 0.00 in0.0 mm 0.00 in0.0 mm
11:05 PM 58.2°F14.6°C 44.1°F6.7°C 59% 7.7 mph WSW12.4 kmh WSW 10.7 mph17.2 kmh 30.13 in1020.3 mb 0.00 in0.0 mm 0.00 in0.0 mm 0.00 in0.0 mm
11:10 PM 58.7°F14.8°C 43.9°F6.6°C 58% 8.1 mph WSW13.0 kmh WSW 12.3 mph19.8 kmh 30.13 in1020.3 mb 0.00 in0.0 mm 0.00 in0.0 mm 0.00 in0.0 mm
11:15 PM 58.9°F14.9°C 43.9°F6.6°C 57% 8.2 mph WSW13.2 kmh WSW 14.8 mph23.8 kmh 30.13 in1020.3 mb 0.00 in0.0 mm 0.00 in0.0 mm 0.00 in0.0 mm
11:20 PM 59.2°F15.1°C 44.0°F6.7°C 57% 8.7 mph SW14.0 kmh SW 11.2 mph18.0 kmh 30.13 in1020.3 mb 0.00 in0.0 mm 0.00 in0.0 mm 0.00 in0.0 mm
11:25 PM 59.3°F15.2°C 43.9°F6.6°C 57% 8.4 mph SW13.5 kmh SW 13.4 mph21.6 kmh 30.13 in1020.3 mb 0.00 in0.0 mm 0.00 in0.0 mm 0.00 in0.0 mm
11:30 PM 59.4°F15.2°C 43.7°F6.5°C 56% 7.6 mph SW12.2 kmh SW 8.7 mph14.0 kmh 30.13 in1020.3 mb 0.00 in0.0 mm 0.00 in0.0 mm 0.00 in0.0 mm
11:35 PM 59.4°F15.2°C 44.1°F6.7°C 57% 7.5 mph SW12.1 kmh SW 9.6 mph15.4 kmh 30.13 in1020.3 mb 0.00 in0.0 mm 0.00 in0.0 mm 0.00 in0.0 mm
11:40 PM 59.0°F15.0°C 44.3°F6.8°C 58% 7.4 mph SW11.9 kmh SW 8.7 mph14.0 kmh 30.13 in1020.3 mb 0.00 in0.0 mm 0.00 in0.0 mm 0.00 in0.0 mm
11:45 PM 58.7°F14.8°C 44.4°F6.9°C 59% 7.4 mph SW11.9 kmh SW 12.3 mph19.8 kmh 30.13 in1020.3 mb 0.00 in0.0 mm 0.00 in0.0 mm 0.00 in0.0 mm
11:50 PM 58.5°F14.7°C 44.0°F6.7°C 58% 7.4 mph SW11.9 kmh SW 11.4 mph18.3 kmh 30.13 in1020.3 mb 0.00 in0.0 mm 0.00 in0.0 mm 0.00 in0.0 mm
11:55 PM 58.7°F14.8°C 43.7°F6.5°C 57% 7.8 mph SW12.6 kmh SW 14.8 mph23.8 kmh 30.12 in1020.0 mb 0.00 in0.0 mm 0.00 in0.0 mm 0.00 in0.0 mm